Time,TemperatureF,DewpointF,PressureIn,WindDirection,WindDirectionDegrees,WindSpeedMPH,WindSpeedGustMPH,Humidity,HourlyPrecipIn,Conditions,Clouds,dailyrainin,SolarRadiationWatts/m^2,SoftwareType,DateUTC
2013-07-01 00:02:00,68.0,54.0,30.18,ENE,61,18.0,25.0,60,-99.99,,,-99.99,0.000000,,2013-07-01 06:02:00,
2013-07-01 00:12:00,65.0,56.0,-100.00,NE,43,27.0,47.0,72,-99.99,,,-99.99,0.000000,,2013-07-01 06:12:00,
2013-07-01 00:24:00,63.0,56.0,-100.00,NNE,29,22.0,39.0,77,-99.99,,,-99.99,0.000000,,2013-07-01 06:24:00,
2013-07-01 00:33:00,63.0,56.0,-100.00,NNE,29,22.0,39.0,77,-99.99,,,-99.99,0.000000,,2013-07-01 06:33:00,
2013-07-01 00:43:00,65.0,54.0,-100.00,NNE,13,17.0,36.0,65,-99.99,,,-99.99,0.000000,,2013-07-01 06:43:00,
2013-07-01 01:01:00,66.0,53.0,30.28,North,357,13.0,35.0,62,-99.99,,,-99.99,0.000000,,2013-07-01 07:01:00,
2013-07-01 01:11:00,66.0,53.0,30.29,NNW,343,9.0,22.0,61,-99.99,,,-99.99,0.000000,,2013-07-01 07:11:00,
2013-07-01 01:22:00,65.0,54.0,30.29,NW,321,15.0,25.0,68,-99.99,,,-99.99,0.000000,,2013-07-01 07:22:00,
2013-07-01 01:33:00,65.0,54.0,30.29,NW,321,15.0,25.0,68,-99.99,,,-99.99,0.000000,,2013-07-01 07:33:00,
2013-07-01 01:43:00,63.0,54.0,30.30,NW,324,23.0,35.0,71,-99.99,,,-99.99,0.000000,,2013-07-01 07:43:00,
2013-07-01 02:01:00,64.0,53.0,30.31,NW,314,22.0,34.0,67,-99.99,,,-99.99,0.000000,,2013-07-01 08:01:00,
2013-07-01 02:11:00,63.0,52.0,30.30,WNW,289,17.0,25.0,66,-99.99,,,-99.99,0.000000,,2013-07-01 08:11:00,
2013-07-01 02:22:00,63.0,52.0,30.28,WSW,249,11.0,28.0,67,-99.99,,,-99.99,0.000000,,2013-07-01 08:22:00,
2013-07-01 02:33:00,63.0,52.0,30.28,WSW,249,11.0,28.0,67,-99.99,,,-99.99,0.000000,,2013-07-01 08:33:00,
2013-07-01 02:42:00,66.0,50.0,30.26,South,186,5.0,16.0,55,-99.99,,,-99.99,0.700000,,2013-07-01 08:42:00,
2013-07-01 03:02:00,67.0,49.0,30.25,ESE,123,11.0,17.0,51,-99.99,,,-99.99,0.000000,,2013-07-01 09:02:00,
2013-07-01 03:34:00,71.0,47.0,30.25,NNW,331,8.0,13.0,42,-99.99,,,-99.99,0.000000,,2013-07-01 09:34:00,
2013-07-01 03:43:00,70.0,49.0,-100.00,North,358,8.0,20.0,47,-99.99,,,-99.99,0.000000,,2013-07-01 09:43:00,
2013-07-01 03:53:00,60.0,57.0,-100.00,ESE,123,18.0,28.0,89,-99.99,,,-99.99,0.000000,,2013-07-01 09:53:00,
2013-07-01 04:03:00,60.0,57.0,30.26,ESE,123,18.0,28.0,89,-99.99,,,-99.99,0.000000,,2013-07-01 10:03:00,
2013-07-01 04:11:00,58.0,56.0,30.26,ESE,121,17.0,22.0,92,-99.99,,,-99.99,0.000000,,2013-07-01 10:11:00,
2013-07-01 04:22:00,59.0,56.0,30.26,ESE,107,18.0,25.0,89,-99.99,,,-99.99,0.000000,,2013-07-01 10:22:00,
2013-07-01 04:33:00,59.0,56.0,30.26,ESE,107,18.0,25.0,89,-99.99,,,-99.99,0.000000,,2013-07-01 10:33:00,
2013-07-01 04:42:00,59.0,56.0,30.27,ESE,113,17.0,19.0,88,-99.99,,,-99.99,0.000000,,2013-07-01 10:42:00,
2013-07-01 04:52:00,59.0,56.0,30.26,ESE,107,15.0,21.0,91,-99.99,,,-99.99,0.000000,,2013-07-01 10:52:00,
2013-07-01 05:02:00,59.0,56.0,30.26,ESE,107,15.0,21.0,91,-99.99,,,-99.99,0.000000,,2013-07-01 11:02:00,
2013-07-01 05:11:00,59.0,56.0,30.26,ESE,106,13.0,17.0,90,-99.99,,,-99.99,0.000000,,2013-07-01 11:11:00,
2013-07-01 05:22:00,59.0,56.0,30.26,East,101,12.0,14.0,90,-99.99,,,-99.99,0.000000,,2013-07-01 11:22:00,
2013-07-01 05:33:00,59.0,56.0,30.26,East,101,12.0,14.0,90,-99.99,,,-99.99,0.000000,,2013-07-01 11:33:00,
2013-07-01 05:43:00,59.0,56.0,30.26,East,96,12.0,14.0,88,-99.99,,,-99.99,0.000000,,2013-07-01 11:43:00,
2013-07-01 05:52:00,60.0,56.0,30.27,East,97,13.0,16.0,85,-99.99,,,-99.99,0.000000,,2013-07-01 11:52:00,
2013-07-01 06:01:00,60.0,56.0,30.27,East,97,13.0,16.0,85,-99.99,,,-99.99,0.000000,,2013-07-01 12:01:00,
2013-07-01 06:11:00,61.0,55.0,30.27,East,99,16.0,19.0,82,-99.99,,,-99.99,0.000000,,2013-07-01 12:11:00,
2013-07-01 06:22:00,61.0,55.0,30.27,ESE,106,18.0,23.0,81,-99.99,,,-99.99,0.000000,,2013-07-01 12:22:00,
2013-07-01 06:33:00,61.0,55.0,30.27,ESE,106,18.0,23.0,81,-99.99,,,-99.99,0.000000,,2013-07-01 12:33:00,
2013-07-01 06:43:00,61.0,55.0,30.27,East,100,20.0,24.0,81,-99.99,,,-99.99,1.390000,,2013-07-01 12:43:00,
2013-07-01 06:53:00,60.0,56.0,30.28,East,96,19.0,22.0,86,-99.99,,,-99.99,2.790000,,2013-07-01 12:53:00,
2013-07-01 07:01:00,60.0,56.0,30.28,East,96,19.0,22.0,86,-99.99,,,-99.99,2.790000,,2013-07-01 13:01:00,
2013-07-01 07:12:00,60.0,56.0,30.28,East,92,20.0,23.0,85,-99.99,,,-99.99,6.970000,,2013-07-01 13:12:00,
2013-07-01 07:23:00,61.0,56.0,30.28,East,86,21.0,23.0,85,-99.99,,,-99.99,11.160000,,2013-07-01 13:23:00,
2013-07-01 07:33:00,61.0,56.0,30.28,East,86,21.0,23.0,85,-99.99,,,-99.99,11.160000,,2013-07-01 13:33:00,
2013-07-01 07:43:00,60.0,57.0,30.28,ENE,76,22.0,25.0,88,-99.99,,,-99.99,20.920000,,2013-07-01 13:43:00,
2013-07-01 07:53:00,60.0,57.0,30.28,ENE,74,24.0,26.0,89,-99.99,,,-99.99,23.010000,,2013-07-01 13:53:00,
2013-07-01 08:01:00,60.0,57.0,30.28,ENE,74,24.0,26.0,89,-99.99,,,-99.99,23.010000,,2013-07-01 14:01:00,
2013-07-01 08:11:00,60.0,57.0,30.29,East,84,26.0,28.0,89,-99.99,,,-99.99,33.470001,,2013-07-01 14:11:00,
2013-07-01 08:34:00,60.0,57.0,30.29,East,91,27.0,30.0,92,-99.99,,,-99.99,55.790001,,2013-07-01 14:34:00,
2013-07-01 08:43:00,59.0,57.0,30.29,East,92,25.0,28.0,92,-99.99,,,-99.99,54.389999,,2013-07-01 14:43:00,
2013-07-01 09:02:00,59.0,57.0,30.29,East,88,27.0,29.0,93,-99.99,,,-99.99,108.089996,,2013-07-01 15:02:00,
2013-07-01 09:11:00,60.0,57.0,30.29,East,89,26.0,29.0,91,-99.99,,,-99.99,131.100006,,2013-07-01 15:11:00,
2013-07-01 09:23:00,60.0,57.0,30.29,East,89,26.0,29.0,90,-99.99,,,-99.99,177.119995,,2013-07-01 15:23:00,
2013-07-01 09:34:00,60.0,57.0,30.29,East,89,26.0,29.0,90,-99.99,,,-99.99,177.119995,,2013-07-01 15:34:00,
2013-07-01 09:43:00,61.0,58.0,30.29,East,90,25.0,28.0,87,-99.99,,,-99.99,444.200012,,2013-07-01 15:43:00,
2013-07-01 09:53:00,62.0,57.0,30.29,East,88,26.0,31.0,83,-99.99,,,-99.99,504.869995,,2013-07-01 15:53:00,
2013-07-01 10:01:00,62.0,57.0,30.29,East,88,26.0,31.0,83,-99.99,,,-99.99,504.869995,,2013-07-01 16:01:00,
2013-07-01 10:11:00,63.0,57.0,30.29,East,87,29.0,34.0,80,-99.99,,,-99.99,381.440002,,2013-07-01 16:11:00,
2013-07-01 10:22:00,63.0,56.0,30.29,East,90,29.0,34.0,75,-99.99,,,-99.99,365.399994,,2013-07-01 16:22:00,
2013-07-01 10:33:00,63.0,56.0,30.29,East,90,29.0,34.0,75,-99.99,,,-99.99,365.399994,,2013-07-01 16:33:00,
2013-07-01 10:44:00,64.0,55.0,30.29,East,82,31.0,36.0,74,-99.99,,,-99.99,412.820007,,2013-07-01 16:44:00,
2013-07-01 10:53:00,64.0,56.0,30.28,East,85,32.0,36.0,74,-99.99,,,-99.99,560.659973,,2013-07-01 16:53:00,
2013-07-01 11:02:00,64.0,56.0,30.28,East,85,32.0,36.0,74,-99.99,,,-99.99,560.659973,,2013-07-01 17:02:00,
2013-07-01 11:12:00,64.0,56.0,30.28,East,79,30.0,35.0,74,-99.99,,,-99.99,472.790009,,2013-07-01 17:12:00,
2013-07-01 11:23:00,65.0,56.0,30.29,East,80,28.0,33.0,74,-99.99,,,-99.99,518.119995,,2013-07-01 17:23:00,
2013-07-01 11:33:00,65.0,56.0,30.29,East,80,28.0,33.0,74,-99.99,,,-99.99,518.119995,,2013-07-01 17:33:00,
2013-07-01 11:43:00,66.0,57.0,30.29,East,82,28.0,36.0,72,-99.99,,,-99.99,783.109985,,2013-07-01 17:43:00,
2013-07-01 12:02:00,65.0,57.0,30.29,East,85,26.0,32.0,74,-99.99,,,-99.99,654.099976,,2013-07-01 18:02:00,
2013-07-01 12:11:00,66.0,56.0,30.29,East,86,28.0,33.0,69,-99.99,,,-99.99,864.000000,,2013-07-01 18:11:00,
2013-07-01 12:22:00,66.0,56.0,30.28,East,90,27.0,34.0,69,-99.99,,,-99.99,816.580017,,2013-07-01 18:22:00,
2013-07-01 12:33:00,66.0,56.0,30.28,East,90,27.0,34.0,69,-99.99,,,-99.99,816.580017,,2013-07-01 18:33:00,
2013-07-01 12:43:00,67.0,56.0,30.28,East,82,28.0,35.0,67,-99.99,,,-99.99,981.849976,,2013-07-01 18:43:00,
2013-07-01 12:53:00,68.0,56.0,30.28,East,81,27.0,34.0,65,-99.99,,,-99.99,939.309998,,2013-07-01 18:53:00,
2013-07-01 13:01:00,68.0,56.0,30.28,East,81,27.0,34.0,65,-99.99,,,-99.99,939.309998,,2013-07-01 19:01:00,
2013-07-01 13:11:00,68.0,56.0,30.28,East,81,28.0,35.0,64,-99.99,,,-99.99,1052.969971,,2013-07-01 19:11:00,
2013-07-01 13:22:00,68.0,56.0,30.28,ENE,78,24.0,31.0,64,-99.99,,,-99.99,797.049988,,2013-07-01 19:22:00,
2013-07-01 13:33:00,68.0,56.0,30.28,ENE,78,24.0,31.0,64,-99.99,,,-99.99,797.049988,,2013-07-01 19:33:00,
2013-07-01 13:44:00,70.0,56.0,30.28,ENE,78,25.0,32.0,62,-99.99,,,-99.99,1034.150024,,2013-07-01 19:44:00,
2013-07-01 14:01:00,70.0,56.0,30.28,East,82,23.0,31.0,61,-99.99,,,-99.99,993.000000,,2013-07-01 20:01:00,
2013-07-01 14:11:00,70.0,56.0,30.27,East,85,23.0,32.0,61,-99.99,,,-99.99,953.250000,,2013-07-01 20:11:00,
2013-07-01 14:22:00,70.0,57.0,30.27,East,86,22.0,34.0,61,-99.99,,,-99.99,1032.750000,,2013-07-01 20:22:00,
2013-07-01 14:34:00,70.0,57.0,30.27,East,86,22.0,34.0,61,-99.99,,,-99.99,1032.750000,,2013-07-01 20:34:00,
2013-07-01 14:43:00,71.0,56.0,30.26,East,86,20.0,29.0,58,-99.99,,,-99.99,833.309998,,2013-07-01 20:43:00,
2013-07-01 14:52:00,71.0,56.0,30.26,East,88,21.0,29.0,58,-99.99,,,-99.99,785.890015,,2013-07-01 20:52:00,
2013-07-01 15:01:00,71.0,56.0,30.26,East,88,21.0,29.0,58,-99.99,,,-99.99,785.890015,,2013-07-01 21:01:00,
2013-07-01 15:11:00,71.0,55.0,30.25,East,91,20.0,28.0,56,-99.99,,,-99.99,972.080017,,2013-07-01 21:11:00,
2013-07-01 15:34:00,72.0,55.0,30.25,East,90,20.0,30.0,55,-99.99,,,-99.99,1006.250000,,2013-07-01 21:34:00,
2013-07-01 15:43:00,72.0,55.0,30.24,East,91,23.0,30.0,54,-99.99,,,-99.99,921.179993,,2013-07-01 21:43:00,
2013-07-01 16:01:00,72.0,55.0,30.23,East,83,26.0,36.0,54,-99.99,,,-99.99,785.890015,,2013-07-01 22:01:00,
2013-07-01 16:11:00,73.0,54.0,30.22,East,85,26.0,38.0,53,-99.99,,,-99.99,864.000000,,2013-07-01 22:11:00,
2013-07-01 16:23:00,73.0,54.0,30.22,East,81,24.0,33.0,50,-99.99,,,-99.99,822.159973,,2013-07-01 22:23:00,
2013-07-01 16:33:00,73.0,54.0,30.22,East,81,24.0,33.0,50,-99.99,,,-99.99,822.159973,,2013-07-01 22:33:00,
2013-07-01 16:43:00,73.0,54.0,30.21,East,82,22.0,30.0,50,-99.99,,,-99.99,621.320007,,2013-07-01 22:43:00,
2013-07-01 16:53:00,73.0,53.0,30.20,East,82,26.0,35.0,50,-99.99,,,-99.99,232.910004,,2013-07-01 22:53:00,
2013-07-01 17:01:00,73.0,53.0,30.20,East,82,26.0,35.0,50,-99.99,,,-99.99,232.910004,,2013-07-01 23:01:00,
2013-07-01 17:11:00,73.0,54.0,30.20,East,85,25.0,33.0,50,-99.99,,,-99.99,222.449997,,2013-07-01 23:11:00,
2013-07-01 17:22:00,73.0,53.0,30.19,East,85,28.0,37.0,49,-99.99,,,-99.99,401.660004,,2013-07-01 23:22:00,
2013-07-01 17:33:00,73.0,53.0,30.19,East,85,28.0,37.0,49,-99.99,,,-99.99,401.660004,,2013-07-01 23:33:00,
2013-07-01 17:44:00,73.0,53.0,30.18,East,86,28.0,35.0,50,-99.99,,,-99.99,214.080002,,2013-07-01 23:44:00,
2013-07-01 18:01:00,73.0,53.0,30.18,ENE,78,27.0,36.0,48,-99.99,,,-99.99,83.680000,,2013-07-02 00:01:00,
2013-07-01 18:12:00,73.0,53.0,30.17,East,81,31.0,38.0,49,-99.99,,,-99.99,185.490005,,2013-07-02 00:12:00,
2013-07-01 18:22:00,73.0,53.0,30.18,East,83,28.0,37.0,49,-99.99,,,-99.99,37.660000,,2013-07-02 00:22:00,
2013-07-01 18:34:00,73.0,53.0,30.18,East,83,28.0,37.0,49,-99.99,,,-99.99,37.660000,,2013-07-02 00:34:00,
2013-07-01 18:43:00,73.0,52.0,30.17,East,85,29.0,38.0,48,-99.99,,,-99.99,34.869999,,2013-07-02 00:43:00,
2013-07-01 19:01:00,72.0,52.0,30.17,East,86,31.0,38.0,48,-99.99,,,-99.99,34.169998,,2013-07-02 01:01:00,
2013-07-01 19:11:00,73.0,52.0,30.17,East,79,31.0,38.0,48,-99.99,,,-99.99,120.639999,,2013-07-02 01:11:00,
2013-07-01 19:22:00,72.0,52.0,30.16,ENE,76,35.0,44.0,48,-99.99,,,-99.99,225.940002,,2013-07-02 01:22:00,
2013-07-01 19:33:00,72.0,52.0,30.16,ENE,76,35.0,44.0,48,-99.99,,,-99.99,225.940002,,2013-07-02 01:33:00,
2013-07-01 19:43:00,72.0,52.0,30.18,ENE,71,34.0,41.0,49,-99.99,,,-99.99,176.429993,,2013-07-02 01:43:00,
2013-07-01 20:02:00,71.0,52.0,30.18,East,79,34.0,39.0,49,-99.99,,,-99.99,105.989998,,2013-07-02 02:02:00,
2013-07-01 20:11:00,71.0,52.0,30.19,ENE,77,33.0,37.0,51,-99.99,,,-99.99,34.869999,,2013-07-02 02:11:00,
2013-07-01 20:22:00,71.0,53.0,30.20,ENE,77,32.0,36.0,52,-99.99,,,-99.99,12.550000,,2013-07-02 02:22:00,
2013-07-01 20:33:00,71.0,53.0,30.20,ENE,77,32.0,36.0,52,-99.99,,,-99.99,12.550000,,2013-07-02 02:33:00,
2013-07-01 20:43:00,71.0,53.0,30.19,East,81,34.0,40.0,53,-99.99,,,-99.99,5.580000,,2013-07-02 02:43:00,
2013-07-01 20:53:00,70.0,53.0,30.17,ENE,78,40.0,50.0,54,-99.99,,,-99.99,1.390000,,2013-07-02 02:53:00,
2013-07-01 21:01:00,70.0,53.0,30.17,ENE,78,40.0,50.0,54,-99.99,,,-99.99,1.390000,,2013-07-02 03:01:00,
2013-07-01 21:12:00,70.0,54.0,30.17,ENE,73,43.0,48.0,56,-99.99,,,-99.99,0.000000,,2013-07-02 03:12:00,
2013-07-01 21:24:00,69.0,54.0,30.20,ENE,70,40.0,47.0,58,-99.99,,,-99.99,0.000000,,2013-07-02 03:24:00,
2013-07-01 21:32:00,69.0,54.0,30.20,ENE,70,40.0,47.0,58,-99.99,,,-99.99,0.000000,,2013-07-02 03:32:00,
2013-07-01 21:43:00,69.0,55.0,30.23,ENE,72,36.0,44.0,61,-99.99,,,-99.99,0.000000,,2013-07-02 03:43:00,
2013-07-01 22:02:00,66.0,57.0,30.22,ENE,68,39.0,50.0,72,-99.99,,,-99.99,0.000000,,2013-07-02 04:02:00,
2013-07-01 22:11:00,60.0,59.0,30.27,ENE,70,32.0,41.0,96,-99.99,,,-99.99,0.000000,,2013-07-02 04:11:00,
2013-07-01 22:32:00,58.0,57.0,30.28,ESE,106,18.0,26.0,97,-99.99,,,-99.99,0.000000,,2013-07-02 04:32:00,
2013-07-01 22:42:00,59.0,57.0,30.30,ENE,69,24.0,31.0,93,-99.99,,,-99.99,0.000000,,2013-07-02 04:42:00,
2013-07-01 22:53:00,59.0,57.0,30.29,ENE,77,30.0,33.0,93,-99.99,,,-99.99,0.000000,,2013-07-02 04:53:00,
2013-07-01 23:01:00,59.0,57.0,30.29,ENE,77,30.0,33.0,93,-99.99,,,-99.99,0.000000,,2013-07-02 05:01:00,
2013-07-01 23:11:00,59.0,57.0,30.29,East,82,29.0,33.0,92,-99.99,,,-99.99,0.000000,,2013-07-02 05:11:00,
2013-07-01 23:22:00,59.0,57.0,30.30,East,84,25.0,29.0,91,-99.99,,,-99.99,0.000000,,2013-07-02 05:22:00,
2013-07-01 23:32:00,59.0,57.0,30.30,East,84,25.0,29.0,91,-99.99,,,-99.99,0.000000,,2013-07-02 05:32:00,
2013-07-01 23:43:00,60.0,56.0,30.29,East,81,28.0,33.0,86,-99.99,,,-99.99,0.000000,,2013-07-02 05:43:00,
2013-07-01 23:53:00,60.0,56.0,30.29,ENE,78,28.0,35.0,85,-99.99,,,-99.99,0.000000,,2013-07-02 05:53:00,